sensor_id;sensor_type;location;lat;lon;timestamp;temperature;humidity
46231;DHT22;31949;51.404;-0.038;2023-05-20T00:01:43;11.50;99.90
46231;DHT22;31949;51.404;-0.038;2023-05-20T00:04:10;11.40;99.90
46231;DHT22;31949;51.404;-0.038;2023-05-20T00:06:38;11.40;99.90
46231;DHT22;31949;51.404;-0.038;2023-05-20T00:09:05;11.40;99.90
46231;DHT22;31949;51.404;-0.038;2023-05-20T00:11:32;11.40;99.90
46231;DHT22;31949;51.404;-0.038;2023-05-20T00:14:00;11.40;99.90
46231;DHT22;31949;51.404;-0.038;2023-05-20T00:16:27;11.30;99.90
46231;DHT22;31949;51.404;-0.038;2023-05-20T00:18:54;11.30;99.90
46231;DHT22;31949;51.404;-0.038;2023-05-20T00:21:22;11.30;99.90
46231;DHT22;31949;51.404;-0.038;2023-05-20T00:23:50;11.30;99.90
46231;DHT22;31949;51.404;-0.038;2023-05-20T00:26:18;11.20;99.90
46231;DHT22;31949;51.404;-0.038;2023-05-20T00:28:52;11.20;99.90
46231;DHT22;31949;51.404;-0.038;2023-05-20T00:31:20;11.10;99.90
46231;DHT22;31949;51.404;-0.038;2023-05-20T00:33:47;11.10;99.90
46231;DHT22;31949;51.404;-0.038;2023-05-20T00:36:15;11.00;99.90
46231;DHT22;31949;51.404;-0.038;2023-05-20T00:38:42;11.00;99.90
46231;DHT22;31949;51.404;-0.038;2023-05-20T00:41:09;11.00;99.90
46231;DHT22;31949;51.404;-0.038;2023-05-20T00:43:36;11.00;99.90
46231;DHT22;31949;51.404;-0.038;2023-05-20T00:46:04;11.00;99.90
46231;DHT22;31949;51.404;-0.038;2023-05-20T00:48:38;10.90;99.90
46231;DHT22;31949;51.404;-0.038;2023-05-20T00:51:07;10.90;99.90
46231;DHT22;31949;51.404;-0.038;2023-05-20T00:53:35;10.90;99.90
46231;DHT22;31949;51.404;-0.038;2023-05-20T00:56:04;10.80;99.90
46231;DHT22;31949;51.404;-0.038;2023-05-20T00:58:31;10.80;99.90
46231;DHT22;31949;51.404;-0.038;2023-05-20T01:00:58;10.70;99.90
46231;DHT22;31949;51.404;-0.038;2023-05-20T01:03:26;10.70;99.90
46231;DHT22;31949;51.404;-0.038;2023-05-20T01:05:54;10.70;99.90
46231;DHT22;31949;51.404;-0.038;2023-05-20T01:08:23;10.70;99.90
46231;DHT22;31949;51.404;-0.038;2023-05-20T01:11:14;10.60;99.90
46231;DHT22;31949;51.404;-0.038;2023-05-20T01:13:53;10.60;99.90
46231;DHT22;31949;51.404;-0.038;2023-05-20T01:16:21;10.60;99.90
46231;DHT22;31949;51.404;-0.038;2023-05-20T01:18:53;10.60;99.90
46231;DHT22;31949;51.404;-0.038;2023-05-20T01:21:21;10.50;99.90
46231;DHT22;31949;51.404;-0.038;2023-05-20T01:23:49;10.50;99.90
46231;DHT22;31949;51.404;-0.038;2023-05-20T01:26:16;10.50;99.90
46231;DHT22;31949;51.404;-0.038;2023-05-20T01:28:45;10.50;99.90
46231;DHT22;31949;51.404;-0.038;2023-05-20T01:31:32;10.40;99.90
46231;DHT22;31949;51.404;-0.038;2023-05-20T01:34:03;10.40;99.90
46231;DHT22;31949;51.404;-0.038;2023-05-20T01:36:31;10.30;99.90
46231;DHT22;31949;51.404;-0.038;2023-05-20T01:39:01;10.40;99.90
46231;DHT22;31949;51.404;-0.038;2023-05-20T01:41:29;10.40;99.90
46231;DHT22;31949;51.404;-0.038;2023-05-20T01:43:57;10.30;99.90
46231;DHT22;31949;51.404;-0.038;2023-05-20T01:46:24;10.30;99.90
46231;DHT22;31949;51.404;-0.038;2023-05-20T01:48:52;10.20;99.90
46231;DHT22;31949;51.404;-0.038;2023-05-20T01:51:19;10.20;99.90
46231;DHT22;31949;51.404;-0.038;2023-05-20T01:53:46;10.20;99.90
46231;DHT22;31949;51.404;-0.038;2023-05-20T01:56:14;10.10;99.90
46231;DHT22;31949;51.404;-0.038;2023-05-20T01:58:41;10.10;99.90
46231;DHT22;31949;51.404;-0.038;2023-05-20T02:01:08;10.10;99.90
46231;DHT22;31949;51.404;-0.038;2023-05-20T02:03:35;10.00;99.90
46231;DHT22;31949;51.404;-0.038;2023-05-20T02:06:03;10.00;99.90
46231;DHT22;31949;51.404;-0.038;2023-05-20T02:08:30;10.00;99.90
46231;DHT22;31949;51.404;-0.038;2023-05-20T02:10:58;9.90;99.90
46231;DHT22;31949;51.404;-0.038;2023-05-20T02:13:26;9.90;99.90
46231;DHT22;31949;51.404;-0.038;2023-05-20T02:15:54;9.90;99.90
46231;DHT22;31949;51.404;-0.038;2023-05-20T02:18:23;9.90;99.90
46231;DHT22;31949;51.404;-0.038;2023-05-20T02:20:52;9.80;99.90
46231;DHT22;31949;51.404;-0.038;2023-05-20T02:23:19;9.80;99.90
46231;DHT22;31949;51.404;-0.038;2023-05-20T02:25:47;9.80;99.90
46231;DHT22;31949;51.404;-0.038;2023-05-20T02:28:14;9.80;99.90
46231;DHT22;31949;51.404;-0.038;2023-05-20T02:30:42;9.80;99.90
46231;DHT22;31949;51.404;-0.038;2023-05-20T02:33:09;9.70;99.90
46231;DHT22;31949;51.404;-0.038;2023-05-20T02:35:36;9.70;99.90
46231;DHT22;31949;51.404;-0.038;2023-05-20T02:38:04;9.70;99.90
46231;DHT22;31949;51.404;-0.038;2023-05-20T02:40:31;9.70;99.90
46231;DHT22;31949;51.404;-0.038;2023-05-20T02:42:59;9.70;99.90
46231;DHT22;31949;51.404;-0.038;2023-05-20T02:45:29;9.70;99.90
46231;DHT22;31949;51.404;-0.038;2023-05-20T02:47:57;9.60;99.90
46231;DHT22;31949;51.404;-0.038;2023-05-20T02:50:24;9.60;99.90
46231;DHT22;31949;51.404;-0.038;2023-05-20T02:52:51;9.50;99.90
46231;DHT22;31949;51.404;-0.038;2023-05-20T02:55:19;9.60;99.90
46231;DHT22;31949;51.404;-0.038;2023-05-20T02:57:47;9.50;99.90
46231;DHT22;31949;51.404;-0.038;2023-05-20T03:00:14;9.50;99.90
46231;DHT22;31949;51.404;-0.038;2023-05-20T03:02:42;9.50;99.90
46231;DHT22;31949;51.404;-0.038;2023-05-20T03:05:09;9.50;99.90
46231;DHT22;31949;51.404;-0.038;2023-05-20T03:07:37;9.50;99.90
46231;DHT22;31949;51.404;-0.038;2023-05-20T03:10:06;9.50;99.90
46231;DHT22;31949;51.404;-0.038;2023-05-20T03:12:33;9.50;99.90
46231;DHT22;31949;51.404;-0.038;2023-05-20T03:15:01;9.50;99.90
46231;DHT22;31949;51.404;-0.038;2023-05-20T03:17:28;9.40;99.90
46231;DHT22;31949;51.404;-0.038;2023-05-20T03:19:56;9.40;99.90
46231;DHT22;31949;51.404;-0.038;2023-05-20T03:22:24;9.40;99.90
46231;DHT22;31949;51.404;-0.038;2023-05-20T03:24:51;9.50;99.90
46231;DHT22;31949;51.404;-0.038;2023-05-20T03:27:19;9.40;99.90
46231;DHT22;31949;51.404;-0.038;2023-05-20T03:29:47;9.40;99.90
46231;DHT22;31949;51.404;-0.038;2023-05-20T03:32:15;9.40;99.90
46231;DHT22;31949;51.404;-0.038;2023-05-20T03:34:43;9.50;99.90
46231;DHT22;31949;51.404;-0.038;2023-05-20T03:37:10;9.50;99.90
46231;DHT22;31949;51.404;-0.038;2023-05-20T03:39:38;9.50;99.90
46231;DHT22;31949;51.404;-0.038;2023-05-20T03:42:05;9.60;99.90
46231;DHT22;31949;51.404;-0.038;2023-05-20T03:44:33;9.60;99.90
46231;DHT22;31949;51.404;-0.038;2023-05-20T03:47:01;9.70;99.90
46231;DHT22;31949;51.404;-0.038;2023-05-20T03:49:29;9.70;99.90
46231;DHT22;31949;51.404;-0.038;2023-05-20T03:51:56;9.70;99.90
46231;DHT22;31949;51.404;-0.038;2023-05-20T03:54:24;9.70;99.90
46231;DHT22;31949;51.404;-0.038;2023-05-20T03:56:52;9.80;99.90
46231;DHT22;31949;51.404;-0.038;2023-05-20T03:59:19;9.80;99.90
46231;DHT22;31949;51.404;-0.038;2023-05-20T04:01:48;9.80;99.90
46231;DHT22;31949;51.404;-0.038;2023-05-20T04:04:15;9.80;99.90
46231;DHT22;31949;51.404;-0.038;2023-05-20T04:06:42;9.80;99.90
46231;DHT22;31949;51.404;-0.038;2023-05-20T04:09:10;9.80;99.90
46231;DHT22;31949;51.404;-0.038;2023-05-20T04:11:38;9.80;99.90
46231;DHT22;31949;51.404;-0.038;2023-05-20T04:14:05;9.80;99.90
46231;DHT22;31949;51.404;-0.038;2023-05-20T04:16:32;9.90;99.90
46231;DHT22;31949;51.404;-0.038;2023-05-20T04:19:00;9.80;99.90
46231;DHT22;31949;51.404;-0.038;2023-05-20T04:21:29;9.80;99.90
46231;DHT22;31949;51.404;-0.038;2023-05-20T04:23:57;9.70;99.90
46231;DHT22;31949;51.404;-0.038;2023-05-20T04:26:28;9.80;99.90
46231;DHT22;31949;51.404;-0.038;2023-05-20T04:28:55;9.80;99.90
46231;DHT22;31949;51.404;-0.038;2023-05-20T04:31:25;9.80;99.90
46231;DHT22;31949;51.404;-0.038;2023-05-20T04:33:53;9.80;99.90
46231;DHT22;31949;51.404;-0.038;2023-05-20T04:36:21;9.80;99.90
46231;DHT22;31949;51.404;-0.038;2023-05-20T04:38:48;9.80;99.90
46231;DHT22;31949;51.404;-0.038;2023-05-20T04:41:16;9.80;99.90
46231;DHT22;31949;51.404;-0.038;2023-05-20T04:43:43;9.80;99.90
46231;DHT22;31949;51.404;-0.038;2023-05-20T04:46:11;9.80;99.90
46231;DHT22;31949;51.404;-0.038;2023-05-20T04:48:41;9.90;99.90
46231;DHT22;31949;51.404;-0.038;2023-05-20T04:51:12;9.90;99.90
46231;DHT22;31949;51.404;-0.038;2023-05-20T04:53:39;9.90;99.90
46231;DHT22;31949;51.404;-0.038;2023-05-20T04:56:06;9.90;99.90
46231;DHT22;31949;51.404;-0.038;2023-05-20T04:58:34;10.00;99.90
46231;DHT22;31949;51.404;-0.038;2023-05-20T05:01:01;10.00;99.90
46231;DHT22;31949;51.404;-0.038;2023-05-20T05:03:29;10.00;99.90
46231;DHT22;31949;51.404;-0.038;2023-05-20T05:05:57;10.00;99.90
46231;DHT22;31949;51.404;-0.038;2023-05-20T05:08:25;10.00;99.90
46231;DHT22;31949;51.404;-0.038;2023-05-20T05:10:52;10.10;99.90
46231;DHT22;31949;51.404;-0.038;2023-05-20T05:13:20;10.00;99.90
46231;DHT22;31949;51.404;-0.038;2023-05-20T05:15:47;10.00;99.90
46231;DHT22;31949;51.404;-0.038;2023-05-20T05:18:15;10.00;99.90
46231;DHT22;31949;51.404;-0.038;2023-05-20T05:20:45;10.00;99.90
46231;DHT22;31949;51.404;-0.038;2023-05-20T05:23:12;10.00;99.90
46231;DHT22;31949;51.404;-0.038;2023-05-20T05:25:39;10.00;99.90
46231;DHT22;31949;51.404;-0.038;2023-05-20T05:28:06;10.00;99.90
46231;DHT22;31949;51.404;-0.038;2023-05-20T05:30:33;10.10;99.90
46231;DHT22;31949;51.404;-0.038;2023-05-20T05:33:01;10.10;99.90
46231;DHT22;31949;51.404;-0.038;2023-05-20T05:35:28;10.10;99.90
46231;DHT22;31949;51.404;-0.038;2023-05-20T05:37:56;10.20;99.90
46231;DHT22;31949;51.404;-0.038;2023-05-20T05:40:23;10.20;99.90
46231;DHT22;31949;51.404;-0.038;2023-05-20T05:42:50;10.20;99.90
46231;DHT22;31949;51.404;-0.038;2023-05-20T05:45:18;10.20;99.90
46231;DHT22;31949;51.404;-0.038;2023-05-20T05:47:45;10.30;99.90
46231;DHT22;31949;51.404;-0.038;2023-05-20T05:50:13;10.30;99.90
46231;DHT22;31949;51.404;-0.038;2023-05-20T05:52:41;10.40;99.90
46231;DHT22;31949;51.404;-0.038;2023-05-20T05:55:10;10.30;99.90
46231;DHT22;31949;51.404;-0.038;2023-05-20T05:57:38;10.40;99.90
46231;DHT22;31949;51.404;-0.038;2023-05-20T06:00:06;10.40;99.90
46231;DHT22;31949;51.404;-0.038;2023-05-20T06:02:44;10.40;99.90
46231;DHT22;31949;51.404;-0.038;2023-05-20T06:05:20;10.40;99.90
46231;DHT22;31949;51.404;-0.038;2023-05-20T06:07:47;10.50;99.90
46231;DHT22;31949;51.404;-0.038;2023-05-20T06:10:14;10.50;99.90
46231;DHT22;31949;51.404;-0.038;2023-05-20T06:12:42;10.50;99.90
46231;DHT22;31949;51.404;-0.038;2023-05-20T06:15:09;10.60;99.90
46231;DHT22;31949;51.404;-0.038;2023-05-20T06:17:37;10.60;99.90
46231;DHT22;31949;51.404;-0.038;2023-05-20T06:20:05;10.50;99.90
46231;DHT22;31949;51.404;-0.038;2023-05-20T06:22:34;10.60;99.90
46231;DHT22;31949;51.404;-0.038;2023-05-20T06:25:02;10.60;99.90
46231;DHT22;31949;51.404;-0.038;2023-05-20T06:27:32;10.60;99.90
46231;DHT22;31949;51.404;-0.038;2023-05-20T06:29:59;10.70;99.90
46231;DHT22;31949;51.404;-0.038;2023-05-20T06:32:28;10.80;99.90
46231;DHT22;31949;51.404;-0.038;2023-05-20T06:34:56;10.80;99.90
46231;DHT22;31949;51.404;-0.038;2023-05-20T06:37:23;10.90;99.90
46231;DHT22;31949;51.404;-0.038;2023-05-20T06:39:52;10.90;99.90
46231;DHT22;31949;51.404;-0.038;2023-05-20T06:42:20;10.90;99.90
46231;DHT22;31949;51.404;-0.038;2023-05-20T06:45:01;11.00;99.90
46231;DHT22;31949;51.404;-0.038;2023-05-20T06:47:58;11.00;99.90
46231;DHT22;31949;51.404;-0.038;2023-05-20T06:50:26;11.10;99.90
46231;DHT22;31949;51.404;-0.038;2023-05-20T06:52:54;11.10;99.90
46231;DHT22;31949;51.404;-0.038;2023-05-20T06:55:21;11.20;99.90
46231;DHT22;31949;51.404;-0.038;2023-05-20T06:57:49;11.30;99.90
46231;DHT22;31949;51.404;-0.038;2023-05-20T07:00:17;11.20;99.90
46231;DHT22;31949;51.404;-0.038;2023-05-20T07:02:44;11.30;99.90
46231;DHT22;31949;51.404;-0.038;2023-05-20T07:05:13;11.40;99.90
46231;DHT22;31949;51.404;-0.038;2023-05-20T07:07:40;11.40;99.90
46231;DHT22;31949;51.404;-0.038;2023-05-20T07:10:08;11.40;99.90
46231;DHT22;31949;51.404;-0.038;2023-05-20T07:12:36;11.50;99.90
46231;DHT22;31949;51.404;-0.038;2023-05-20T07:15:03;11.50;99.90
46231;DHT22;31949;51.404;-0.038;2023-05-20T07:17:32;11.50;99.90
46231;DHT22;31949;51.404;-0.038;2023-05-20T07:19:59;11.60;99.90
46231;DHT22;31949;51.404;-0.038;2023-05-20T07:22:28;11.70;99.90
46231;DHT22;31949;51.404;-0.038;2023-05-20T07:25:13;11.80;99.90
46231;DHT22;31949;51.404;-0.038;2023-05-20T07:27:40;11.80;99.90
46231;DHT22;31949;51.404;-0.038;2023-05-20T07:30:07;11.90;99.90
46231;DHT22;31949;51.404;-0.038;2023-05-20T07:32:36;12.00;99.90
46231;DHT22;31949;51.404;-0.038;2023-05-20T07:35:04;12.00;99.90
46231;DHT22;31949;51.404;-0.038;2023-05-20T07:37:32;12.10;99.90
46231;DHT22;31949;51.404;-0.038;2023-05-20T07:40:01;12.20;99.90
46231;DHT22;31949;51.404;-0.038;2023-05-20T07:42:29;12.30;99.90
46231;DHT22;31949;51.404;-0.038;2023-05-20T07:44:59;12.30;99.90
46231;DHT22;31949;51.404;-0.038;2023-05-20T07:47:27;12.40;99.90
46231;DHT22;31949;51.404;-0.038;2023-05-20T07:49:55;12.40;99.90
46231;DHT22;31949;51.404;-0.038;2023-05-20T07:52:22;12.50;99.90
46231;DHT22;31949;51.404;-0.038;2023-05-20T07:54:49;12.50;99.90
46231;DHT22;31949;51.404;-0.038;2023-05-20T07:57:17;12.60;99.90
46231;DHT22;31949;51.404;-0.038;2023-05-20T07:59:44;12.70;99.90
46231;DHT22;31949;51.404;-0.038;2023-05-20T08:02:11;12.90;99.90
46231;DHT22;31949;51.404;-0.038;2023-05-20T08:04:40;13.00;99.90
46231;DHT22;31949;51.404;-0.038;2023-05-20T08:07:07;13.10;99.90
46231;DHT22;31949;51.404;-0.038;2023-05-20T08:09:48;13.10;99.90
46231;DHT22;31949;51.404;-0.038;2023-05-20T08:12:17;13.20;99.90
46231;DHT22;31949;51.404;-0.038;2023-05-20T08:14:46;13.30;99.90
46231;DHT22;31949;51.404;-0.038;2023-05-20T08:17:13;13.50;99.90
46231;DHT22;31949;51.404;-0.038;2023-05-20T08:19:40;13.70;99.90
46231;DHT22;31949;51.404;-0.038;2023-05-20T08:22:08;13.90;99.90
46231;DHT22;31949;51.404;-0.038;2023-05-20T08:24:35;14.10;99.90
46231;DHT22;31949;51.404;-0.038;2023-05-20T08:27:02;14.00;99.90
46231;DHT22;31949;51.404;-0.038;2023-05-20T08:29:31;14.00;99.90
46231;DHT22;31949;51.404;-0.038;2023-05-20T08:31:59;13.90;99.90
46231;DHT22;31949;51.404;-0.038;2023-05-20T08:34:27;14.00;99.90
46231;DHT22;31949;51.404;-0.038;2023-05-20T08:36:54;13.90;99.90
46231;DHT22;31949;51.404;-0.038;2023-05-20T08:39:24;13.90;99.90
46231;DHT22;31949;51.404;-0.038;2023-05-20T08:41:56;13.90;99.90
46231;DHT22;31949;51.404;-0.038;2023-05-20T08:44:25;13.90;99.90
46231;DHT22;31949;51.404;-0.038;2023-05-20T08:46:53;13.90;99.90
46231;DHT22;31949;51.404;-0.038;2023-05-20T08:49:22;13.90;99.90
46231;DHT22;31949;51.404;-0.038;2023-05-20T08:51:50;14.10;99.90
46231;DHT22;31949;51.404;-0.038;2023-05-20T08:54:17;14.20;99.90
46231;DHT22;31949;51.404;-0.038;2023-05-20T08:56:47;14.40;99.90
46231;DHT22;31949;51.404;-0.038;2023-05-20T08:59:14;14.50;99.90
46231;DHT22;31949;51.404;-0.038;2023-05-20T09:01:43;14.60;99.90
46231;DHT22;31949;51.404;-0.038;2023-05-20T09:04:10;14.80;99.90
46231;DHT22;31949;51.404;-0.038;2023-05-20T09:06:42;14.80;99.90
46231;DHT22;31949;51.404;-0.038;2023-05-20T09:09:13;14.80;99.90
46231;DHT22;31949;51.404;-0.038;2023-05-20T09:11:42;14.90;99.90
46231;DHT22;31949;51.404;-0.038;2023-05-20T09:14:09;15.10;99.90
46231;DHT22;31949;51.404;-0.038;2023-05-20T09:16:39;15.30;99.90
46231;DHT22;31949;51.404;-0.038;2023-05-20T09:19:07;15.30;99.90
46231;DHT22;31949;51.404;-0.038;2023-05-20T09:21:36;15.40;99.90
46231;DHT22;31949;51.404;-0.038;2023-05-20T09:24:05;15.50;99.90
46231;DHT22;31949;51.404;-0.038;2023-05-20T09:26:32;15.60;99.90
46231;DHT22;31949;51.404;-0.038;2023-05-20T09:28:59;15.70;99.90
46231;DHT22;31949;51.404;-0.038;2023-05-20T09:31:29;15.70;99.90
46231;DHT22;31949;51.404;-0.038;2023-05-20T09:33:56;15.80;99.90
46231;DHT22;31949;51.404;-0.038;2023-05-20T09:36:27;15.90;99.90
46231;DHT22;31949;51.404;-0.038;2023-05-20T09:38:59;16.10;99.90
46231;DHT22;31949;51.404;-0.038;2023-05-20T09:41:38;16.20;99.90
46231;DHT22;31949;51.404;-0.038;2023-05-20T09:44:11;16.40;99.90
46231;DHT22;31949;51.404;-0.038;2023-05-20T09:46:39;16.70;99.90
46231;DHT22;31949;51.404;-0.038;2023-05-20T09:49:07;17.00;99.90
46231;DHT22;31949;51.404;-0.038;2023-05-20T09:51:36;17.20;99.90
46231;DHT22;31949;51.404;-0.038;2023-05-20T09:54:03;17.20;99.90
46231;DHT22;31949;51.404;-0.038;2023-05-20T09:56:33;17.30;99.90
46231;DHT22;31949;51.404;-0.038;2023-05-20T09:59:02;17.30;99.90
46231;DHT22;31949;51.404;-0.038;2023-05-20T10:01:31;17.30;99.90
46231;DHT22;31949;51.404;-0.038;2023-05-20T10:03:58;17.50;99.90
46231;DHT22;31949;51.404;-0.038;2023-05-20T10:06:52;17.60;99.90
46231;DHT22;31949;51.404;-0.038;2023-05-20T10:20:07;18.00;99.90
46231;DHT22;31949;51.404;-0.038;2023-05-20T10:22:39;18.00;99.90
46231;DHT22;31949;51.404;-0.038;2023-05-20T10:25:23;17.90;99.90
46231;DHT22;31949;51.404;-0.038;2023-05-20T10:28:26;17.90;99.90
46231;DHT22;31949;51.404;-0.038;2023-05-20T10:30:56;18.00;99.90
46231;DHT22;31949;51.404;-0.038;2023-05-20T10:33:25;18.10;99.90
46231;DHT22;31949;51.404;-0.038;2023-05-20T10:35:53;18.30;99.90
46231;DHT22;31949;51.404;-0.038;2023-05-20T10:38:24;18.30;99.90
46231;DHT22;31949;51.404;-0.038;2023-05-20T10:40:51;18.40;99.90
46231;DHT22;31949;51.404;-0.038;2023-05-20T10:43:26;18.50;99.90
46231;DHT22;31949;51.404;-0.038;2023-05-20T10:45:57;18.40;99.90
46231;DHT22;31949;51.404;-0.038;2023-05-20T10:48:28;18.30;99.90
46231;DHT22;31949;51.404;-0.038;2023-05-20T10:50:59;18.40;99.90
46231;DHT22;31949;51.404;-0.038;2023-05-20T10:53:37;18.40;99.90
46231;DHT22;31949;51.404;-0.038;2023-05-20T10:56:05;18.40;99.90
46231;DHT22;31949;51.404;-0.038;2023-05-20T10:58:37;18.30;99.90
46231;DHT22;31949;51.404;-0.038;2023-05-20T11:01:05;18.40;99.90
46231;DHT22;31949;51.404;-0.038;2023-05-20T11:03:34;18.40;99.90
46231;DHT22;31949;51.404;-0.038;2023-05-20T11:06:13;18.50;99.90
46231;DHT22;31949;51.404;-0.038;2023-05-20T11:08:44;18.70;99.90
46231;DHT22;31949;51.404;-0.038;2023-05-20T11:11:12;19.00;99.90
46231;DHT22;31949;51.404;-0.038;2023-05-20T11:13:40;19.00;99.90
46231;DHT22;31949;51.404;-0.038;2023-05-20T11:16:08;19.00;99.90
46231;DHT22;31949;51.404;-0.038;2023-05-20T11:18:35;18.90;99.90
46231;DHT22;31949;51.404;-0.038;2023-05-20T11:21:02;18.80;99.90
46231;DHT22;31949;51.404;-0.038;2023-05-20T11:23:30;18.80;99.90
46231;DHT22;31949;51.404;-0.038;2023-05-20T11:25:57;18.80;99.90
46231;DHT22;31949;51.404;-0.038;2023-05-20T11:28:25;19.10;99.90
46231;DHT22;31949;51.404;-0.038;2023-05-20T11:30:52;19.10;99.90
46231;DHT22;31949;51.404;-0.038;2023-05-20T11:33:19;19.30;99.90
46231;DHT22;31949;51.404;-0.038;2023-05-20T11:35:50;19.40;99.90
46231;DHT22;31949;51.404;-0.038;2023-05-20T11:38:19;19.50;99.90
46231;DHT22;31949;51.404;-0.038;2023-05-20T11:40:53;19.40;99.90
46231;DHT22;31949;51.404;-0.038;2023-05-20T11:43:22;19.30;99.90
46231;DHT22;31949;51.404;-0.038;2023-05-20T11:45:57;19.30;99.90
46231;DHT22;31949;51.404;-0.038;2023-05-20T11:48:26;19.40;99.90
46231;DHT22;31949;51.404;-0.038;2023-05-20T11:50:54;19.40;99.90
46231;DHT22;31949;51.404;-0.038;2023-05-20T11:53:23;19.40;99.90
46231;DHT22;31949;51.404;-0.038;2023-05-20T11:55:54;19.40;99.90
46231;DHT22;31949;51.404;-0.038;2023-05-20T11:58:26;19.60;99.90
46231;DHT22;31949;51.404;-0.038;2023-05-20T12:00:54;19.70;99.90
46231;DHT22;31949;51.404;-0.038;2023-05-20T12:03:35;19.60;99.90
46231;DHT22;31949;51.404;-0.038;2023-05-20T12:06:03;19.60;99.90
46231;DHT22;31949;51.404;-0.038;2023-05-20T12:08:30;19.50;99.90
46231;DHT22;31949;51.404;-0.038;2023-05-20T12:10:57;19.40;99.90
46231;DHT22;31949;51.404;-0.038;2023-05-20T12:13:24;19.20;99.90
46231;DHT22;31949;51.404;-0.038;2023-05-20T12:15:52;19.30;99.90
46231;DHT22;31949;51.404;-0.038;2023-05-20T12:18:19;19.40;99.90
46231;DHT22;31949;51.404;-0.038;2023-05-20T12:20:47;19.70;99.90
46231;DHT22;31949;51.404;-0.038;2023-05-20T12:23:14;19.80;99.90
46231;DHT22;31949;51.404;-0.038;2023-05-20T12:25:41;19.90;99.90
46231;DHT22;31949;51.404;-0.038;2023-05-20T12:28:08;20.00;99.90
46231;DHT22;31949;51.404;-0.038;2023-05-20T12:30:36;20.00;99.90
46231;DHT22;31949;51.404;-0.038;2023-05-20T12:33:03;20.20;99.90
46231;DHT22;31949;51.404;-0.038;2023-05-20T12:35:41;20.00;99.90
46231;DHT22;31949;51.404;-0.038;2023-05-20T12:38:09;20.00;99.90
46231;DHT22;31949;51.404;-0.038;2023-05-20T12:40:36;19.90;99.90
46231;DHT22;31949;51.404;-0.038;2023-05-20T12:43:05;19.90;99.90
46231;DHT22;31949;51.404;-0.038;2023-05-20T12:45:32;19.80;99.90
46231;DHT22;31949;51.404;-0.038;2023-05-20T12:47:59;20.00;99.90
46231;DHT22;31949;51.404;-0.038;2023-05-20T12:50:27;20.10;99.90
46231;DHT22;31949;51.404;-0.038;2023-05-20T12:52:54;20.20;99.90
46231;DHT22;31949;51.404;-0.038;2023-05-20T12:55:22;20.30;99.90
46231;DHT22;31949;51.404;-0.038;2023-05-20T12:57:49;20.20;99.90
46231;DHT22;31949;51.404;-0.038;2023-05-20T13:00:16;20.10;99.90
46231;DHT22;31949;51.404;-0.038;2023-05-20T13:02:43;20.10;99.90
46231;DHT22;31949;51.404;-0.038;2023-05-20T13:05:11;20.30;99.90
46231;DHT22;31949;51.404;-0.038;2023-05-20T13:07:39;20.30;99.90
46231;DHT22;31949;51.404;-0.038;2023-05-20T13:10:07;20.20;99.90
46231;DHT22;31949;51.404;-0.038;2023-05-20T13:12:34;19.90;99.90
46231;DHT22;31949;51.404;-0.038;2023-05-20T13:15:02;19.70;99.90
46231;DHT22;31949;51.404;-0.038;2023-05-20T13:17:30;19.60;99.90
46231;DHT22;31949;51.404;-0.038;2023-05-20T13:19:58;19.40;99.90
46231;DHT22;31949;51.404;-0.038;2023-05-20T13:22:25;19.50;99.90
46231;DHT22;31949;51.404;-0.038;2023-05-20T13:24:52;19.40;99.90
46231;DHT22;31949;51.404;-0.038;2023-05-20T13:27:19;19.50;99.90
46231;DHT22;31949;51.404;-0.038;2023-05-20T13:29:47;19.70;99.90
46231;DHT22;31949;51.404;-0.038;2023-05-20T13:32:14;19.90;99.90
46231;DHT22;31949;51.404;-0.038;2023-05-20T13:34:41;20.00;99.90
46231;DHT22;31949;51.404;-0.038;2023-05-20T13:37:08;20.00;99.90
46231;DHT22;31949;51.404;-0.038;2023-05-20T13:39:36;19.90;99.80
46231;DHT22;31949;51.404;-0.038;2023-05-20T13:42:03;19.80;99.70
46231;DHT22;31949;51.404;-0.038;2023-05-20T13:44:31;19.80;99.90
46231;DHT22;31949;51.404;-0.038;2023-05-20T13:46:59;19.80;99.90
46231;DHT22;31949;51.404;-0.038;2023-05-20T13:49:26;20.00;99.90
46231;DHT22;31949;51.404;-0.038;2023-05-20T13:51:53;20.20;99.90
46231;DHT22;31949;51.404;-0.038;2023-05-20T13:54:20;20.20;99.90
46231;DHT22;31949;51.404;-0.038;2023-05-20T13:56:48;20.20;99.80
46231;DHT22;31949;51.404;-0.038;2023-05-20T13:59:15;20.20;99.60
46231;DHT22;31949;51.404;-0.038;2023-05-20T14:01:43;20.20;99.00
46231;DHT22;31949;51.404;-0.038;2023-05-20T14:04:11;20.10;99.20
46231;DHT22;31949;51.404;-0.038;2023-05-20T14:06:39;20.30;99.10
46231;DHT22;31949;51.404;-0.038;2023-05-20T14:09:07;20.40;99.60
46231;DHT22;31949;51.404;-0.038;2023-05-20T14:11:35;20.50;98.90
46231;DHT22;31949;51.404;-0.038;2023-05-20T14:14:02;20.70;98.80
46231;DHT22;31949;51.404;-0.038;2023-05-20T14:16:30;20.70;98.60
46231;DHT22;31949;51.404;-0.038;2023-05-20T14:18:58;20.60;97.80
46231;DHT22;31949;51.404;-0.038;2023-05-20T14:21:25;20.60;97.90
46231;DHT22;31949;51.404;-0.038;2023-05-20T14:23:53;20.30;97.80
46231;DHT22;31949;51.404;-0.038;2023-05-20T14:26:20;20.20;97.70
46231;DHT22;31949;51.404;-0.038;2023-05-20T14:28:47;20.20;98.40
46231;DHT22;31949;51.404;-0.038;2023-05-20T14:31:15;20.40;97.70
46231;DHT22;31949;51.404;-0.038;2023-05-20T14:33:42;20.40;97.80
46231;DHT22;31949;51.404;-0.038;2023-05-20T14:36:10;20.40;97.60
46231;DHT22;31949;51.404;-0.038;2023-05-20T14:38:37;20.40;98.20
46231;DHT22;31949;51.404;-0.038;2023-05-20T14:41:04;20.40;98.00
46231;DHT22;31949;51.404;-0.038;2023-05-20T14:43:32;20.50;98.10
46231;DHT22;31949;51.404;-0.038;2023-05-20T14:46:00;20.40;97.90
46231;DHT22;31949;51.404;-0.038;2023-05-20T14:48:28;20.30;97.40
46231;DHT22;31949;51.404;-0.038;2023-05-20T14:50:55;20.30;97.20
46231;DHT22;31949;51.404;-0.038;2023-05-20T14:53:22;20.40;97.40
46231;DHT22;31949;51.404;-0.038;2023-05-20T14:55:50;20.30;97.60
46231;DHT22;31949;51.404;-0.038;2023-05-20T14:58:17;20.10;97.30
46231;DHT22;31949;51.404;-0.038;2023-05-20T15:00:44;20.20;97.10
46231;DHT22;31949;51.404;-0.038;2023-05-20T15:03:11;20.30;96.50
46231;DHT22;31949;51.404;-0.038;2023-05-20T15:05:39;20.40;96.90
46231;DHT22;31949;51.404;-0.038;2023-05-20T15:08:08;20.50;96.20
46231;DHT22;31949;51.404;-0.038;2023-05-20T15:10:35;20.40;96.40
46231;DHT22;31949;51.404;-0.038;2023-05-20T15:13:03;20.50;95.80
46231;DHT22;31949;51.404;-0.038;2023-05-20T15:15:30;20.50;95.50
46231;DHT22;31949;51.404;-0.038;2023-05-20T15:17:57;20.70;95.90
46231;DHT22;31949;51.404;-0.038;2023-05-20T15:20:25;20.70;96.10
46231;DHT22;31949;51.404;-0.038;2023-05-20T15:22:52;20.60;96.40
46231;DHT22;31949;51.404;-0.038;2023-05-20T15:25:20;20.50;96.40
46231;DHT22;31949;51.404;-0.038;2023-05-20T15:27:47;20.40;95.90
46231;DHT22;31949;51.404;-0.038;2023-05-20T15:30:14;20.20;95.50
46231;DHT22;31949;51.404;-0.038;2023-05-20T15:32:41;20.30;95.40
46231;DHT22;31949;51.404;-0.038;2023-05-20T15:35:09;20.40;96.00
46231;DHT22;31949;51.404;-0.038;2023-05-20T15:37:36;20.50;95.70